Bookmark and Share
Track history (hours):
 

Kenneth Carl

More information available from US FCC via Universal Licensing System and Coast Guard Vessel Documentation Center.

Last reported at 2014-Apr-16 21:33 UTC. Time now 2014-Apr-16 22:24 UTC.
Position N 33°35' W 118°08'.

Length 31 m; draft 3 m.

Type: Ship. MMSI: 367492920.

NotesDate/timePositionNaut miles runAvg speedWind from/ knotsBaromVisibWave heightAir tempDewpointWater temp
2014-Apr-16 21:33N 33°35' W 118°08'1 0.6
2014-Apr-16 19:31N 33°34' W 118°07'1 0.7
2014-Apr-16 17:32N 33°35' W 118°07'11 9.7
2014-Apr-16 16:27N 33°43' W 118°16'1 0.6
2014-Apr-16 15:08N 33°44' W 118°16'0 0.1
2014-Apr-16 10:32N 33°44' W 118°16'10 9.0
2014-Apr-16 09:28N 33°36' W 118°10'2 2.4
2014-Apr-16 08:33N 33°35' W 118°08'0 0.0
2014-Apr-16 07:33N 33°35' W 118°08'0 0.0
2014-Apr-16 06:33N 33°35' W 118°08'0 0.1
2014-Apr-16 05:24N 33°35' W 118°08'0 0.1
2014-Apr-16 04:33N 33°35' W 118°08'5 5.2
2014-Apr-16 03:33N 33°39' W 118°11'6 6.4
2014-Apr-16 02:33N 33°44' W 118°16'0 0.0
2014-Apr-16 01:33N 33°44' W 118°16'0 0.0
2014-Apr-16 00:33N 33°44' W 118°16'0 0.0
2014-Apr-15 23:33N 33°44' W 118°16'3 2.8
2014-Apr-15 22:33N 33°42' W 118°14'9 8.8
2014-Apr-15 21:33N 33°35' W 118°08'0 0.1
2014-Apr-15 20:33N 33°35' W 118°08'0 0.0
2014-Apr-15 19:33N 33°35' W 118°08'0 0.3
2014-Apr-15 18:33N 33°35' W 118°07'1 0.5
2014-Apr-15 17:33N 33°34' W 118°07'1 0.6
2014-Apr-15 16:33N 33°34' W 118°07'1 1.3
2014-Apr-15 15:33N 33°35' W 118°08'10 9.7
2014-Apr-15 14:33N 33°43' W 118°15'1 0.3
2014-Apr-15 10:34N 33°42' W 118°14'9 8.7
2014-Apr-15 09:33N 33°35' W 118°08'0 0.2
2014-Apr-15 08:34N 33°35' W 118°08'0 0.0
2014-Apr-15 07:34N 33°35' W 118°08'0 0.1
2014-Apr-15 06:34N 33°35' W 118°08'0 0.1
2014-Apr-15 05:34N 33°35' W 118°08'1 0.6
2014-Apr-15 03:34N 33°34' W 118°07'2 2.2
2014-Apr-15 02:34N 33°36' W 118°09'10 9.8
2014-Apr-15 01:34N 33°43' W 118°16'1 0.9
2014-Apr-15 00:33N 33°44' W 118°16'0 0.0
2014-Apr-14 23:34N 33°44' W 118°16'0 0.0
2014-Apr-14 22:34N 33°44' W 118°16'2 2.2
2014-Apr-14 21:34N 33°42' W 118°15'9 9.4
2014-Apr-14 20:34N 33°35' W 118°08'0 0.1
2014-Apr-14 19:34N 33°35' W 118°08'0 0.0
2014-Apr-14 18:34N 33°35' W 118°08'0 0.0
2014-Apr-14 17:30N 33°35' W 118°08'0 0.1
2014-Apr-14 16:33N 33°35' W 118°08'  
2014-Apr-12 05:11N 33°42' W 118°14'810.6
2014-Apr-12 04:26N 33°35' W 118°08'0 0.4
2014-Apr-12 03:30N 33°35' W 118°08'0 0.1
2014-Apr-12 02:33N 33°35' W 118°08'0 0.0
2014-Apr-12 01:33N 33°35' W 118°08'0 0.0
2014-Apr-12 00:33N 33°35' W 118°08'0 0.0
2014-Apr-11 23:33N 33°35' W 118°08'1 1.2
2014-Apr-11 22:33N 33°34' W 118°07'1 1.2
2014-Apr-11 21:33N 33°35' W 118°08'8 8.3
2014-Apr-11 20:33N 33°41' W 118°14'3 3.3
2014-Apr-11 19:33N 33°44' W 118°16'0 0.0
2014-Apr-11 18:33N 33°44' W 118°16'0 0.4
2014-Apr-11 17:33N 33°44' W 118°16'0 0.0
2014-Apr-11 16:33N 33°44' W 118°16'6 5.9
2014-Apr-11 15:33N 33°39' W 118°12'6 5.5
2014-Apr-11 14:33N 33°35' W 118°08'0 0.1
2014-Apr-11 13:33N 33°35' W 118°08'0 0.0
2014-Apr-11 12:33N 33°35' W 118°08'0 0.0
2014-Apr-11 11:33N 33°35' W 118°08'0 0.0
2014-Apr-11 10:33N 33°35' W 118°08'0 0.0
2014-Apr-11 09:33N 33°35' W 118°08'0 0.0
2014-Apr-11 08:33N 33°35' W 118°08'1 1.1
2014-Apr-11 07:33N 33°36' W 118°08'1010.4
2014-Apr-11 06:33N 33°44' W 118°16'0 0.1
2014-Apr-11 05:33N 33°44' W 118°16'0 0.0
2014-Apr-11 04:33N 33°44' W 118°16'2 2.4
2014-Apr-11 03:33N 33°42' W 118°14'9 9.1
2014-Apr-11 02:33N 33°35' W 118°08'0 0.1
2014-Apr-11 01:33N 33°35' W 118°08'0 0.0
2014-Apr-11 00:33N 33°35' W 118°08'0 0.0
2014-Apr-10 23:34N 33°35' W 118°08'1 1.1
2014-Apr-10 22:33N 33°34' W 118°07'1 1.2
2014-Apr-10 21:33N 33°35' W 118°08'1 1.3
2014-Apr-10 20:33N 33°34' W 118°07'0 0.0
2014-Apr-10 19:33N 33°34' W 118°07'0 0.0
2014-Apr-10 18:33N 33°34' W 118°07'1 1.2
2014-Apr-10 17:34N 33°35' W 118°08'5 5.2
2014-Apr-10 16:33N 33°39' W 118°12'6 6.4
2014-Apr-10 15:33N 33°44' W 118°16'0 0.0
2014-Apr-10 14:33N 33°44' W 118°16'0 0.0
2014-Apr-10 13:33N 33°44' W 118°16'0 0.0
2014-Apr-10 12:34N 33°44' W 118°16'6 6.3
2014-Apr-10 11:33N 33°39' W 118°12'5 5.4
2014-Apr-10 10:33N 33°35' W 118°08'0 0.0
2014-Apr-10 09:33N 33°35' W 118°08'0 0.0
2014-Apr-10 08:33N 33°35' W 118°08'0 0.2
2014-Apr-10 07:33N 33°35' W 118°08'2 2.2
2014-Apr-10 06:33N 33°37' W 118°09'9 9.4
2014-Apr-10 05:33N 33°44' W 118°16'0 0.0
2014-Apr-10 04:33N 33°44' W 118°16'0 0.0
2014-Apr-10 03:33N 33°44' W 118°16'0 0.0
2014-Apr-10 02:33N 33°44' W 118°16'0 0.0
2014-Apr-10 01:33N 33°44' W 118°16'0 0.0
2014-Apr-10 00:33N 33°44' W 118°16'1 0.8
2014-Apr-09 23:29N 33°43' W 118°16'10 9.5
2014-Apr-09 22:27N 33°36' W 118°09'1 1.0
2014-Apr-09 21:31N 33°35' W 118°08'0 0.1
2014-Apr-09 20:33N 33°35' W 118°08'0 0.0
2014-Apr-09 19:33N 33°35' W 118°08'0 0.0
2014-Apr-09 18:33N 33°35' W 118°08'0 0.1
2014-Apr-09 17:34N 33°35' W 118°08'0 0.0
2014-Apr-09 16:33N 33°35' W 118°08'0 0.1
2014-Apr-09 15:33N 33°35' W 118°08'7 7.0
2014-Apr-09 14:33N 33°40' W 118°13'5 4.6
2014-Apr-09 13:33N 33°44' W 118°16'0 0.0
2014-Apr-09 12:34N 33°44' W 118°16'0 0.0
2014-Apr-09 11:33N 33°44' W 118°16'0 0.0
2014-Apr-09 10:19N 33°44' W 118°16'0 0.0
2014-Apr-09 09:28N 33°44' W 118°16'0 0.0
2014-Apr-09 08:19N 33°44' W 118°16'7 9.5
2014-Apr-09 07:33N 33°38' W 118°11'4 4.4
2014-Apr-09 06:33N 33°35' W 118°08'1 1.2
2014-Apr-09 05:33N 33°34' W 118°07'0 0.2
2014-Apr-09 04:33N 33°34' W 118°07'0 0.0
2014-Apr-09 03:33N 33°34' W 118°07'2 2.2
2014-Apr-09 02:33N 33°36' W 118°08'7 1.7
2014-Apr-08 22:14N 33°42' W 118°14'7 9.4
2014-Apr-08 21:27N 33°36' W 118°08'1 1.1
2014-Apr-08 20:33N 33°35' W 118°08'0 0.0
2014-Apr-08 19:33N 33°35' W 118°08'0 0.0
2014-Apr-08 18:33N 33°35' W 118°08'0 0.1
2014-Apr-08 17:33N 33°35' W 118°08'0 0.0
2014-Apr-08 16:33N 33°35' W 118°08'0 0.1
2014-Apr-08 15:26N 33°35' W 118°08'8 8.8
2014-Apr-08 14:33N 33°41' W 118°14'4 1.3
2014-Apr-08 11:33N 33°44' W 118°16'0 0.0
2014-Apr-08 10:32N 33°44' W 118°16'4 4.3
2014-Apr-08 09:33N 33°41' W 118°13'7 7.5
2014-Apr-08 08:33N 33°35' W 118°08'0 0.0
2014-Apr-08 07:33N 33°35' W 118°08'0 0.0
2014-Apr-08 06:19N 33°35' W 118°08'1 1.2
2014-Apr-08 05:15N 33°34' W 118°07'0 0.0
2014-Apr-08 04:28N 33°34' W 118°07'13 4.4
2014-Apr-08 01:31N 33°44' W 118°16'0 0.0
2014-Apr-08 00:26N 33°44' W 118°16'0 0.0
2014-Apr-07 23:30N 33°44' W 118°16'8 8.8
2014-Apr-07 22:33N 33°37' W 118°10'3 3.3
2014-Apr-07 21:33N 33°35' W 118°08'0 0.1
2014-Apr-07 20:33N 33°35' W 118°08'0 0.1
2014-Apr-07 19:33N 33°35' W 118°08'0 0.0
2014-Apr-07 17:33N 33°35' W 118°08'0 0.0
2014-Apr-07 16:33N 33°35' W 118°08'0 0.0
2014-Apr-07 15:33N 33°35' W 118°08'0 0.1
2014-Apr-07 14:33N 33°35' W 118°08'4 4.3
2014-Apr-07 13:33N 33°38' W 118°11'7 7.3
2014-Apr-07 12:33N 33°44' W 118°16'0 0.0
2014-Apr-07 11:33N 33°44' W 118°16'0 0.0
2014-Apr-07 10:33N 33°44' W 118°16'0 0.0
2014-Apr-07 09:33N 33°44' W 118°16'0 0.0
2014-Apr-07 08:33N 33°44' W 118°16'0 0.0
2014-Apr-07 07:33N 33°44' W 118°16'0 0.0
2014-Apr-07 06:33N 33°44' W 118°16'0 0.0
2014-Apr-07 05:33N 33°44' W 118°16'0 0.0
2014-Apr-07 04:30N 33°44' W 118°16'0 0.0
2014-Apr-07 03:29N 33°44' W 118°16'0 0.0
2014-Apr-07 02:33N 33°44' W 118°16'0 0.0
2014-Apr-07 01:33N 33°44' W 118°16'0 0.0
2014-Apr-07 00:33N 33°44' W 118°16'0 0.0
2014-Apr-06 23:33N 33°44' W 118°16'0 0.0
2014-Apr-06 22:33N 33°44' W 118°16'0 0.0
2014-Apr-06 21:33N 33°44' W 118°16'  

Dump ship's entire track history

sailing weather and tide predictions

Kenneth Carl — WDF8246 — position and weather